Toulon, Nevada
Current Conditions -  °F | °C
As of 1:53 PM on Friday 24 Oct 2014 (Local Time) from KLOL Reporting Station
Clear Clear  
Wind Chill: 22°   Ceiling: Unl
Heat Index: 22°   Visibility: 10mi
Dew Point:   Wind: 5mph
Humidity: 23%   Direction: 320°NW
Pressure: 29.99"   Gusts: NA
Location:  40.3545°N, 118.628°W
Report Text: KLOL 242053Z AUTO 32004KT 10SM CLR 22/00 A2999 RMK AO2 SLP138 T02220000 58030
Loading
Personal Weather Stations






























Interactive Weather Map
Tropical Storm Tracking
New forecast layout! Learn more

10-Day Weather Forecast

Advertisements
Track Severe Weather on mobile